Terminal Aerodrome Forecast
Issued by NWS

Home | Current Version | Previous Version | Text Only | Print | Product List | Glossary On
Versions: 1 2 3 4 5 6 7 8 9 10 11 12 13 14 15
195
FTUS42 KTAE 271759 CCA
TAFDHN
TAF COR
KDHN 271759Z 2718/2818 18012KT P6SM BKN025
      TEMPO 2718/2720 18015G25KT BKN025
     FM280500 VRB03KT 4SM BR OVC015
     FM280900 15004KT 1SM BR OVC003
     FM281500 16008KT P6SM OVC015=

USA.gov is the U.S. government's official web portal to all federal, state and local government web resources and services.